Check out our new PWSWeather beta!
PWSweather.com
Personal Weather Stations
Station Observations

YeovilGB

Lat: 50.949, Lon: -2.627

Elevation: 70

Station Type: Vantage Pro

http://www.yeovil-weather.me.uk/

High Low Average
Temperature 48.3°F9.1°C 40.5°F4.7°C 43.1°F6.2°C
Dew Point 43.4°F6.3°C 38.5°F3.6°C 40.8°F4.9°C
Winds 5.8 mph 9.3 kmh Calm Calm 1.0 mph SSW1.6 kmh SSW
Wind Gusts 12.7 mph20.4 kmh -- 4.0 mph6.4 kmh
Humidity 96% 82% 92%
Pressure 29.98 in1015.2 mb 29.63 in1003.4 mb -
Precipitation 0.02 in0.5 mm - -
Hour Temp Dew Point Humidity Winds Wind Gusts Pressure Precip Precip Rate Daily Precip Total
12:00 AM 41.2°F5.1°C 40.1°F4.5°C 96% Calm Calm -- 29.63 in1003.4 mb - 0.00 in0.0 mm 0.00 in0.0 mm
12:10 AM 41.1°F5.1°C 40.1°F4.5°C 96% Calm Calm -- 29.63 in1003.4 mb - 0.00 in0.0 mm 0.00 in0.0 mm
12:20 AM 41.1°F5.1°C 39.8°F4.3°C 95% Calm Calm -- 29.63 in1003.4 mb - 0.00 in0.0 mm 0.00 in0.0 mm
12:30 AM 40.9°F4.9°C 39.6°F4.2°C 95% Calm Calm -- 29.64 in1003.7 mb - 0.00 in0.0 mm 0.00 in0.0 mm
12:40 AM 40.7°F4.8°C 39.4°F4.1°C 95% Calm Calm -- 29.64 in1003.7 mb - 0.00 in0.0 mm 0.00 in0.0 mm
12:50 AM 40.7°F4.8°C 39.6°F4.2°C 96% Calm Calm -- 29.64 in1003.7 mb - 0.00 in0.0 mm 0.00 in0.0 mm
01:00 AM 40.7°F4.8°C 39.6°F4.2°C 96% 2.3 mph N3.7 kmh N 6.9 mph11.1 kmh 29.64 in1003.7 mb - 0.00 in0.0 mm 0.00 in0.0 mm
01:10 AM 40.6°F4.8°C 39.5°F4.2°C 96% 1.2 mph NW1.9 kmh NW 1.2 mph1.9 kmh 29.65 in1004.1 mb - 0.00 in0.0 mm 0.00 in0.0 mm
01:20 AM 40.5°F4.7°C 39.4°F4.1°C 96% Calm Calm 3.5 mph5.6 kmh 29.65 in1004.1 mb - 0.00 in0.0 mm 0.00 in0.0 mm
01:30 AM 40.5°F4.7°C 39.4°F4.1°C 96% Calm Calm 1.2 mph1.9 kmh 29.65 in1004.1 mb - 0.00 in0.0 mm 0.00 in0.0 mm
01:40 AM 40.5°F4.7°C 39.4°F4.1°C 96% 1.2 mph NW1.9 kmh NW 5.8 mph9.3 kmh 29.66 in1004.4 mb - 0.00 in0.0 mm 0.00 in0.0 mm
01:50 AM 40.6°F4.8°C 39.5°F4.2°C 96% Calm Calm 1.2 mph1.9 kmh 29.66 in1004.4 mb - 0.00 in0.0 mm 0.00 in0.0 mm
02:00 AM 40.6°F4.8°C 39.6°F4.2°C 96% Calm Calm 6.9 mph11.1 kmh 29.66 in1004.4 mb - 0.00 in0.0 mm 0.00 in0.0 mm
02:10 AM 40.8°F4.9°C 39.7°F4.3°C 96% Calm Calm 2.3 mph3.7 kmh 29.66 in1004.4 mb - 0.00 in0.0 mm 0.00 in0.0 mm
02:20 AM 40.9°F4.9°C 39.8°F4.3°C 96% Calm Calm 5.8 mph9.3 kmh 29.66 in1004.4 mb - 0.00 in0.0 mm 0.00 in0.0 mm
02:30 AM 40.9°F4.9°C 39.9°F4.4°C 96% Calm Calm 5.8 mph9.3 kmh 29.66 in1004.4 mb - 0.00 in0.0 mm 0.00 in0.0 mm
02:40 AM 41.0°F5.0°C 39.9°F4.4°C 96% Calm Calm -- 29.67 in1004.7 mb - 0.00 in0.0 mm 0.00 in0.0 mm
02:50 AM 41.1°F5.1°C 40.0°F4.4°C 96% 3.5 mph NW5.6 kmh NW 5.8 mph9.3 kmh 29.67 in1004.7 mb - 0.00 in0.0 mm 0.00 in0.0 mm
03:00 AM 41.1°F5.1°C 40.0°F4.4°C 96% 3.5 mph NW5.6 kmh NW 8.1 mph13.0 kmh 29.67 in1004.7 mb - 0.00 in0.0 mm 0.00 in0.0 mm
03:10 AM 41.0°F5.0°C 39.9°F4.4°C 96% 1.2 mph NW1.9 kmh NW 3.5 mph5.6 kmh 29.68 in1005.1 mb - 0.00 in0.0 mm 0.00 in0.0 mm
03:20 AM 40.9°F4.9°C 39.6°F4.2°C 95% 3.5 mph NNW5.6 kmh NNW 6.9 mph11.1 kmh 29.68 in1005.1 mb - 0.00 in0.0 mm 0.00 in0.0 mm
03:30 AM 40.8°F4.9°C 39.5°F4.2°C 95% 4.6 mph NW7.4 kmh NW 8.1 mph13.0 kmh 29.68 in1005.1 mb - 0.00 in0.0 mm 0.00 in0.0 mm
03:40 AM 40.7°F4.8°C 39.4°F4.1°C 95% 3.5 mph NW5.6 kmh NW 8.1 mph13.0 kmh 29.69 in1005.4 mb - 0.00 in0.0 mm 0.00 in0.0 mm
03:50 AM 40.6°F4.8°C 39.3°F4.1°C 95% 2.3 mph NW3.7 kmh NW 5.8 mph9.3 kmh 29.69 in1005.4 mb - 0.00 in0.0 mm 0.00 in0.0 mm
04:00 AM 40.6°F4.8°C 39.3°F4.1°C 95% 3.5 mph NW5.6 kmh NW 6.9 mph11.1 kmh 29.70 in1005.8 mb - 0.00 in0.0 mm 0.00 in0.0 mm
04:10 AM 40.7°F4.8°C 39.6°F4.2°C 96% 2.3 mph NW3.7 kmh NW 6.9 mph11.1 kmh 29.70 in1005.8 mb - 0.00 in0.0 mm 0.00 in0.0 mm
04:20 AM 40.7°F4.8°C 39.6°F4.2°C 96% 1.2 mph NW1.9 kmh NW 3.5 mph5.6 kmh 29.71 in1006.1 mb - 0.00 in0.0 mm 0.00 in0.0 mm
04:30 AM 40.9°F4.9°C 39.8°F4.3°C 96% 2.3 mph NNW3.7 kmh NNW 3.5 mph5.6 kmh 29.71 in1006.1 mb - 0.00 in0.0 mm 0.00 in0.0 mm
04:40 AM 41.1°F5.1°C 40.0°F4.4°C 96% 1.2 mph NNW1.9 kmh NNW 9.2 mph14.8 kmh 29.72 in1006.4 mb - 0.00 in0.0 mm 0.00 in0.0 mm
04:50 AM 41.4°F5.2°C 40.3°F4.6°C 96% 2.3 mph N3.7 kmh N 5.8 mph9.3 kmh 29.73 in1006.8 mb - 0.00 in0.0 mm 0.00 in0.0 mm
05:00 AM 41.7°F5.4°C 40.6°F4.8°C 96% 4.6 mph N7.4 kmh N 10.4 mph16.7 kmh 29.73 in1006.8 mb - 0.00 in0.0 mm 0.00 in0.0 mm
05:10 AM 42.2°F5.7°C 41.1°F5.1°C 96% 2.3 mph N3.7 kmh N 5.8 mph9.3 kmh 29.74 in1007.1 mb - 0.00 in0.0 mm 0.00 in0.0 mm
05:20 AM 42.5°F5.8°C 41.5°F5.3°C 96% 4.6 mph N7.4 kmh N 8.1 mph13.0 kmh 29.75 in1007.5 mb - 0.00 in0.0 mm 0.00 in0.0 mm
05:30 AM 42.5°F5.8°C 41.4°F5.2°C 96% 3.5 mph N5.6 kmh N 10.4 mph16.7 kmh 29.75 in1007.5 mb - 0.00 in0.0 mm 0.00 in0.0 mm
05:40 AM 42.5°F5.8°C 41.4°F5.2°C 96% 5.8 mph N9.3 kmh N 11.5 mph18.5 kmh 29.76 in1007.8 mb - 0.00 in0.0 mm 0.00 in0.0 mm
05:50 AM 42.3°F5.7°C 41.2°F5.1°C 96% 2.3 mph N3.7 kmh N 5.8 mph9.3 kmh 29.77 in1008.1 mb - 0.00 in0.0 mm 0.00 in0.0 mm
06:00 AM 42.2°F5.7°C 41.1°F5.1°C 96% 3.5 mph N5.6 kmh N 6.9 mph11.1 kmh 29.77 in1008.1 mb - 0.00 in0.0 mm 0.00 in0.0 mm
06:10 AM 42.2°F5.7°C 41.1°F5.1°C 96% 3.5 mph N5.6 kmh N 8.1 mph13.0 kmh 29.79 in1008.8 mb - 0.00 in0.0 mm 0.00 in0.0 mm
06:20 AM 42.1°F5.6°C 41.1°F5.1°C 96% 4.6 mph N7.4 kmh N 9.2 mph14.8 kmh 29.79 in1008.8 mb - 0.00 in0.0 mm 0.00 in0.0 mm
06:30 AM 42.1°F5.6°C 40.8°F4.9°C 95% 5.8 mph N9.3 kmh N 10.4 mph16.7 kmh 29.80 in1009.1 mb - 0.00 in0.0 mm 0.00 in0.0 mm
06:40 AM 42.2°F5.7°C 40.9°F4.9°C 95% 5.8 mph N9.3 kmh N 6.9 mph11.1 kmh 29.81 in1009.5 mb - 0.00 in0.0 mm 0.00 in0.0 mm
06:50 AM 42.3°F5.7°C 41.0°F5.0°C 95% 4.6 mph N7.4 kmh N 12.7 mph20.4 kmh 29.82 in1009.8 mb - 0.00 in0.0 mm 0.00 in0.0 mm
07:00 AM 42.4°F5.8°C 41.1°F5.1°C 95% 4.6 mph NNE7.4 kmh NNE 12.7 mph20.4 kmh 29.82 in1009.8 mb - 0.00 in0.0 mm 0.00 in0.0 mm
07:10 AM 42.6°F5.9°C 41.2°F5.1°C 95% 4.6 mph NNE7.4 kmh NNE 11.5 mph18.5 kmh 29.83 in1010.2 mb - 0.00 in0.0 mm 0.00 in0.0 mm
07:20 AM 42.7°F5.9°C 41.4°F5.2°C 95% 4.6 mph N7.4 kmh N 8.1 mph13.0 kmh 29.84 in1010.5 mb - 0.00 in0.0 mm 0.00 in0.0 mm
07:30 AM 42.9°F6.1°C 41.3°F5.2°C 94% 5.8 mph N9.3 kmh N 10.4 mph16.7 kmh 29.85 in1010.8 mb - 0.00 in0.0 mm 0.00 in0.0 mm
07:40 AM 42.9°F6.1°C 41.3°F5.2°C 94% Calm Calm 4.6 mph7.4 kmh 29.85 in1010.8 mb - 0.00 in0.0 mm 0.00 in0.0 mm
07:50 AM 42.9°F6.1°C 41.6°F5.3°C 95% 1.2 mph N1.9 kmh N 11.5 mph18.5 kmh 29.86 in1011.2 mb - 0.00 in0.0 mm 0.00 in0.0 mm
08:00 AM 43.0°F6.1°C 41.6°F5.3°C 95% 3.5 mph N5.6 kmh N 8.1 mph13.0 kmh 29.87 in1011.5 mb - 0.00 in0.0 mm 0.00 in0.0 mm
08:10 AM 43.0°F6.1°C 41.7°F5.4°C 95% 3.5 mph N5.6 kmh N 9.2 mph14.8 kmh 29.88 in1011.9 mb - 0.00 in0.0 mm 0.00 in0.0 mm
08:20 AM 43.0°F6.1°C 41.7°F5.4°C 95% 2.3 mph N3.7 kmh N 9.2 mph14.8 kmh 29.88 in1011.9 mb - 0.00 in0.0 mm 0.00 in0.0 mm
08:30 AM 42.9°F6.1°C 41.3°F5.2°C 94% 2.3 mph N3.7 kmh N 9.2 mph14.8 kmh 29.89 in1012.2 mb - 0.00 in0.0 mm 0.00 in0.0 mm
08:40 AM 42.8°F6.0°C 41.4°F5.2°C 95% 2.3 mph N3.7 kmh N 8.1 mph13.0 kmh 29.90 in1012.5 mb - 0.00 in0.0 mm 0.00 in0.0 mm
08:50 AM 42.6°F5.9°C 41.3°F5.2°C 95% 5.8 mph NNW9.3 kmh NNW 9.2 mph14.8 kmh 29.91 in1012.9 mb - 0.00 in0.0 mm 0.00 in0.0 mm
09:00 AM 42.4°F5.8°C 40.8°F4.9°C 94% 4.6 mph N7.4 kmh N 9.2 mph14.8 kmh 29.92 in1013.2 mb - 0.00 in0.0 mm 0.00 in0.0 mm
09:10 AM 42.3°F5.7°C 40.7°F4.8°C 94% 1.2 mph N1.9 kmh N 9.2 mph14.8 kmh 29.92 in1013.2 mb - 0.00 in0.0 mm 0.00 in0.0 mm
09:20 AM 42.3°F5.7°C 40.7°F4.8°C 94% 4.6 mph N7.4 kmh N 10.4 mph16.7 kmh 29.93 in1013.5 mb - 0.00 in0.0 mm 0.00 in0.0 mm
09:30 AM 42.4°F5.8°C 40.5°F4.7°C 93% 3.5 mph 5.6 kmh 6.9 mph11.1 kmh 29.93 in1013.5 mb - 0.00 in0.0 mm 0.00 in0.0 mm
09:40 AM 42.6°F5.9°C 40.7°F4.8°C 93% 4.6 mph N7.4 kmh N 10.4 mph16.7 kmh 29.94 in1013.9 mb - 0.00 in0.0 mm 0.00 in0.0 mm
09:50 AM 42.9°F6.1°C 41.0°F5.0°C 93% 3.5 mph N5.6 kmh N 9.2 mph14.8 kmh 29.94 in1013.9 mb - 0.00 in0.0 mm 0.00 in0.0 mm
10:00 AM 43.4°F6.3°C 41.3°F5.2°C 92% 2.3 mph N3.7 kmh N 5.8 mph9.3 kmh 29.95 in1014.2 mb - 0.00 in0.0 mm 0.00 in0.0 mm
10:10 AM 43.8°F6.6°C 41.3°F5.2°C 91% 4.6 mph N7.4 kmh N 8.1 mph13.0 kmh 29.95 in1014.2 mb - 0.00 in0.0 mm 0.00 in0.0 mm
10:20 AM 43.8°F6.6°C 41.3°F5.2°C 91% 2.3 mph N3.7 kmh N 5.8 mph9.3 kmh 29.96 in1014.6 mb - 0.00 in0.0 mm 0.00 in0.0 mm
10:30 AM 43.7°F6.5°C 41.0°F5.0°C 90% 3.5 mph N5.6 kmh N 4.6 mph7.4 kmh 29.96 in1014.6 mb - 0.00 in0.0 mm 0.00 in0.0 mm
10:40 AM 43.6°F6.4°C 40.9°F4.9°C 90% Calm Calm 1.2 mph1.9 kmh 29.96 in1014.6 mb - 0.00 in0.0 mm 0.00 in0.0 mm
10:50 AM 43.8°F6.6°C 41.1°F5.1°C 90% 4.6 mph N7.4 kmh N 9.2 mph14.8 kmh 29.96 in1014.6 mb - 0.00 in0.0 mm 0.00 in0.0 mm
11:00 AM 44.0°F6.7°C 41.0°F5.0°C 89% 4.6 mph NNE7.4 kmh NNE 8.1 mph13.0 kmh 29.96 in1014.6 mb - 0.00 in0.0 mm 0.00 in0.0 mm
11:10 AM 44.0°F6.7°C 40.7°F4.8°C 88% 1.2 mph NE1.9 kmh NE 11.5 mph18.5 kmh 29.96 in1014.6 mb - 0.00 in0.0 mm 0.00 in0.0 mm
11:20 AM 44.5°F6.9°C 41.5°F5.3°C 89% 3.5 mph NNE5.6 kmh NNE 6.9 mph11.1 kmh 29.96 in1014.6 mb - 0.00 in0.0 mm 0.00 in0.0 mm
11:30 AM 45.5°F7.5°C 42.2°F5.7°C 88% 1.2 mph N1.9 kmh N 4.6 mph7.4 kmh 29.96 in1014.6 mb - 0.00 in0.0 mm 0.00 in0.0 mm
11:40 AM 46.2°F7.9°C 42.6°F5.9°C 87% 3.5 mph N5.6 kmh N 5.8 mph9.3 kmh 29.96 in1014.6 mb - 0.00 in0.0 mm 0.00 in0.0 mm
11:50 AM 46.6°F8.1°C 42.6°F5.9°C 86% 2.3 mph N3.7 kmh N 6.9 mph11.1 kmh 29.95 in1014.2 mb - 0.00 in0.0 mm 0.00 in0.0 mm
12:00 PM 46.8°F8.2°C 42.5°F5.8°C 85% 1.2 mph NNE1.9 kmh NNE -- 29.95 in1014.2 mb - 0.00 in0.0 mm 0.00 in0.0 mm
12:10 PM 47.2°F8.4°C 42.7°F5.9°C 84% 2.3 mph N3.7 kmh N 5.8 mph9.3 kmh 29.95 in1014.2 mb - 0.00 in0.0 mm 0.00 in0.0 mm
12:20 PM 47.5°F8.6°C 42.9°F6.1°C 84% 1.2 mph N1.9 kmh N 4.6 mph7.4 kmh 29.95 in1014.2 mb - 0.00 in0.0 mm 0.00 in0.0 mm
12:30 PM 47.8°F8.8°C 42.9°F6.1°C 83% Calm Calm -- 29.95 in1014.2 mb - 0.00 in0.0 mm 0.00 in0.0 mm
12:40 PM 48.3°F9.1°C 43.4°F6.3°C 83% 2.3 mph N3.7 kmh N 5.8 mph9.3 kmh 29.96 in1014.6 mb - 0.00 in0.0 mm 0.00 in0.0 mm
12:50 PM 48.3°F9.1°C 43.1°F6.2°C 82% 3.5 mph N5.6 kmh N 6.9 mph11.1 kmh 29.96 in1014.6 mb - 0.00 in0.0 mm 0.00 in0.0 mm
01:00 PM 48.1°F8.9°C 42.9°F6.1°C 82% 1.2 mph N1.9 kmh N 1.2 mph1.9 kmh 29.96 in1014.6 mb - 0.00 in0.0 mm 0.00 in0.0 mm
01:10 PM 48.1°F8.9°C 43.2°F6.2°C 83% 1.2 mph NNW1.9 kmh NNW 5.8 mph9.3 kmh 29.96 in1014.6 mb - 0.00 in0.0 mm 0.00 in0.0 mm
01:20 PM 48.0°F8.9°C 42.8°F6.0°C 82% 1.2 mph NNW1.9 kmh NNW 2.3 mph3.7 kmh 29.97 in1014.9 mb - 0.00 in0.0 mm 0.00 in0.0 mm
01:30 PM 48.0°F8.9°C 42.8°F6.0°C 82% Calm Calm 2.3 mph3.7 kmh 29.96 in1014.6 mb - 0.00 in0.0 mm 0.00 in0.0 mm
01:40 PM 48.0°F8.9°C 42.8°F6.0°C 82% Calm Calm -- 29.96 in1014.6 mb - 0.00 in0.0 mm 0.00 in0.0 mm
01:50 PM 48.1°F8.9°C 43.2°F6.2°C 83% Calm Calm 1.2 mph1.9 kmh 29.96 in1014.6 mb - 0.00 in0.0 mm 0.00 in0.0 mm
02:00 PM 48.1°F8.9°C 42.9°F6.1°C 82% Calm Calm -- 29.95 in1014.2 mb - 0.00 in0.0 mm 0.00 in0.0 mm
02:10 PM 48.1°F8.9°C 42.9°F6.1°C 82% Calm Calm -- 29.96 in1014.6 mb - 0.00 in0.0 mm 0.00 in0.0 mm
02:20 PM 48.0°F8.9°C 42.8°F6.0°C 82% 1.2 mph NNE1.9 kmh NNE 5.8 mph9.3 kmh 29.97 in1014.9 mb - 0.00 in0.0 mm 0.00 in0.0 mm
02:30 PM 47.7°F8.7°C 42.5°F5.8°C 82% Calm Calm -- 29.96 in1014.6 mb - 0.00 in0.0 mm 0.00 in0.0 mm
02:40 PM 47.6°F8.7°C 42.7°F5.9°C 83% Calm Calm 3.5 mph5.6 kmh 29.97 in1014.9 mb - 0.00 in0.0 mm 0.00 in0.0 mm
02:50 PM 47.4°F8.6°C 42.5°F5.8°C 83% Calm Calm -- 29.97 in1014.9 mb - 0.00 in0.0 mm 0.00 in0.0 mm
03:00 PM 47.2°F8.4°C 42.3°F5.7°C 83% Calm Calm -- 29.97 in1014.9 mb - 0.00 in0.0 mm 0.00 in0.0 mm
03:10 PM 47.1°F8.4°C 42.5°F5.8°C 84% Calm Calm -- 29.98 in1015.2 mb - 0.00 in0.0 mm 0.00 in0.0 mm
03:20 PM 46.9°F8.3°C 42.3°F5.7°C 84% Calm Calm -- 29.98 in1015.2 mb - 0.01 in0.3 mm 0.01 in0.3 mm
03:30 PM 46.7°F8.2°C 42.4°F5.8°C 85% Calm Calm -- 29.98 in1015.2 mb - 0.00 in0.0 mm 0.01 in0.3 mm
03:40 PM 46.4°F8.0°C 42.1°F5.6°C 85% Calm Calm -- 29.97 in1014.9 mb - 0.00 in0.0 mm 0.01 in0.3 mm
03:50 PM 46.0°F7.8°C 42.1°F5.6°C 86% Calm Calm -- 29.97 in1014.9 mb - 0.00 in0.0 mm 0.01 in0.3 mm
04:00 PM 45.7°F7.6°C 41.8°F5.4°C 86% Calm Calm -- 29.97 in1014.9 mb - 0.00 in0.0 mm 0.01 in0.3 mm
04:10 PM 45.4°F7.4°C 41.4°F5.2°C 86% Calm Calm -- 29.96 in1014.6 mb - 0.00 in0.0 mm 0.01 in0.3 mm
04:20 PM 45.0°F7.2°C 41.4°F5.2°C 87% Calm Calm -- 29.95 in1014.2 mb - 0.00 in0.0 mm 0.01 in0.3 mm
04:30 PM 44.6°F7.0°C 41.0°F5.0°C 87% Calm Calm -- 29.96 in1014.6 mb - 0.00 in0.0 mm 0.01 in0.3 mm
04:40 PM 44.2°F6.8°C 40.6°F4.8°C 87% Calm Calm -- 29.95 in1014.2 mb - 0.00 in0.0 mm 0.01 in0.3 mm
04:50 PM 43.9°F6.6°C 40.6°F4.8°C 88% Calm Calm -- 29.95 in1014.2 mb - 0.00 in0.0 mm 0.01 in0.3 mm
05:00 PM 43.6°F6.4°C 40.6°F4.8°C 89% Calm Calm -- 29.95 in1014.2 mb - 0.00 in0.0 mm 0.01 in0.3 mm
05:10 PM 43.3°F6.3°C 40.3°F4.6°C 89% Calm Calm -- 29.96 in1014.6 mb - 0.00 in0.0 mm 0.01 in0.3 mm
05:20 PM 42.9°F6.1°C 39.9°F4.4°C 89% Calm Calm -- 29.96 in1014.6 mb - 0.00 in0.0 mm 0.01 in0.3 mm
05:30 PM 42.5°F5.8°C 39.5°F4.2°C 89% Calm Calm -- 29.95 in1014.2 mb - 0.00 in0.0 mm 0.01 in0.3 mm
05:40 PM 42.3°F5.7°C 39.6°F4.2°C 90% Calm Calm -- 29.94 in1013.9 mb - 0.00 in0.0 mm 0.01 in0.3 mm
05:50 PM 42.1°F5.6°C 39.7°F4.3°C 91% Calm Calm -- 29.93 in1013.5 mb - 0.00 in0.0 mm 0.01 in0.3 mm
06:00 PM 42.1°F5.6°C 39.6°F4.2°C 91% Calm Calm -- 29.91 in1012.9 mb - 0.00 in0.0 mm 0.01 in0.3 mm
06:10 PM 42.0°F5.6°C 39.9°F4.4°C 92% Calm Calm -- 29.90 in1012.5 mb - 0.00 in0.0 mm 0.01 in0.3 mm
06:20 PM 41.9°F5.5°C 39.8°F4.3°C 92% Calm Calm -- 29.89 in1012.2 mb - 0.00 in0.0 mm 0.01 in0.3 mm
06:30 PM 41.5°F5.3°C 39.4°F4.1°C 92% Calm Calm -- 29.88 in1011.9 mb - 0.00 in0.0 mm 0.01 in0.3 mm
06:40 PM 41.2°F5.1°C 39.1°F3.9°C 92% Calm Calm -- 29.88 in1011.9 mb - 0.00 in0.0 mm 0.01 in0.3 mm
06:50 PM 40.9°F4.9°C 38.8°F3.8°C 92% Calm Calm -- 29.88 in1011.9 mb - 0.00 in0.0 mm 0.01 in0.3 mm
07:00 PM 40.6°F4.8°C 38.5°F3.6°C 92% Calm Calm -- 29.89 in1012.2 mb - 0.00 in0.0 mm 0.01 in0.3 mm
07:10 PM 40.5°F4.7°C 38.6°F3.7°C 93% Calm Calm -- 29.91 in1012.9 mb - 0.00 in0.0 mm 0.01 in0.3 mm
07:20 PM 40.5°F4.7°C 38.6°F3.7°C 93% Calm Calm -- 29.90 in1012.5 mb - 0.00 in0.0 mm 0.01 in0.3 mm
07:30 PM 41.0°F5.0°C 39.4°F4.1°C 94% Calm Calm -- 29.91 in1012.9 mb - 0.00 in0.0 mm 0.01 in0.3 mm
07:40 PM 41.1°F5.1°C 39.5°F4.2°C 94% Calm Calm -- 29.90 in1012.5 mb - 0.00 in0.0 mm 0.01 in0.3 mm
07:50 PM 41.1°F5.1°C 39.5°F4.2°C 94% Calm Calm -- 29.90 in1012.5 mb - 0.00 in0.0 mm 0.01 in0.3 mm
08:00 PM 41.2°F5.1°C 39.6°F4.2°C 94% 2.3 mph SSE3.7 kmh SSE 5.8 mph9.3 kmh 29.88 in1011.9 mb - 0.00 in0.0 mm 0.01 in0.3 mm
08:10 PM 41.2°F5.1°C 39.6°F4.2°C 94% 1.2 mph SE1.9 kmh SE 4.6 mph7.4 kmh 29.88 in1011.9 mb - 0.00 in0.0 mm 0.01 in0.3 mm
08:20 PM 41.3°F5.2°C 39.7°F4.3°C 94% 1.2 mph SSE1.9 kmh SSE 5.8 mph9.3 kmh 29.89 in1012.2 mb - 0.00 in0.0 mm 0.01 in0.3 mm
08:30 PM 41.4°F5.2°C 39.8°F4.3°C 94% Calm Calm 2.3 mph3.7 kmh 29.89 in1012.2 mb - 0.00 in0.0 mm 0.01 in0.3 mm
08:40 PM 41.7°F5.4°C 40.1°F4.5°C 94% Calm Calm -- 29.88 in1011.9 mb - 0.00 in0.0 mm 0.01 in0.3 mm
08:50 PM 41.8°F5.4°C 40.2°F4.6°C 94% Calm Calm -- 29.88 in1011.9 mb - 0.00 in0.0 mm 0.01 in0.3 mm
09:00 PM 41.9°F5.5°C 40.3°F4.6°C 94% Calm Calm -- 29.89 in1012.2 mb - 0.00 in0.0 mm 0.01 in0.3 mm
09:10 PM 42.0°F5.6°C 40.4°F4.7°C 94% Calm Calm -- 29.90 in1012.5 mb - 0.00 in0.0 mm 0.01 in0.3 mm
09:20 PM 42.0°F5.6°C 40.4°F4.7°C 94% Calm Calm -- 29.89 in1012.2 mb - 0.00 in0.0 mm 0.01 in0.3 mm
09:30 PM 42.2°F5.7°C 40.6°F4.8°C 94% Calm Calm -- 29.89 in1012.2 mb - 0.00 in0.0 mm 0.01 in0.3 mm
09:40 PM 42.1°F5.6°C 40.5°F4.7°C 94% Calm Calm -- 29.88 in1011.9 mb - 0.00 in0.0 mm 0.01 in0.3 mm
09:50 PM 42.1°F5.6°C 40.5°F4.7°C 94% Calm Calm -- 29.88 in1011.9 mb - 0.00 in0.0 mm 0.01 in0.3 mm
10:00 PM 42.1°F5.6°C 40.5°F4.7°C 94% Calm Calm -- 29.87 in1011.5 mb - 0.00 in0.0 mm 0.01 in0.3 mm
10:10 PM 42.1°F5.6°C 40.5°F4.7°C 94% Calm Calm -- 29.86 in1011.2 mb - 0.00 in0.0 mm 0.01 in0.3 mm
10:20 PM 42.1°F5.6°C 40.5°F4.7°C 94% Calm Calm -- 29.85 in1010.8 mb - 0.00 in0.0 mm 0.01 in0.3 mm
10:30 PM 42.1°F5.6°C 40.5°F4.7°C 94% Calm Calm -- 29.84 in1010.5 mb - 0.00 in0.0 mm 0.01 in0.3 mm
10:40 PM 42.2°F5.7°C 40.6°F4.8°C 94% Calm Calm -- 29.83 in1010.2 mb - 0.00 in0.0 mm 0.01 in0.3 mm
10:50 PM 42.2°F5.7°C 40.6°F4.8°C 94% Calm Calm -- 29.82 in1009.8 mb - 0.00 in0.0 mm 0.01 in0.3 mm
11:00 PM 42.2°F5.7°C 40.6°F4.8°C 94% Calm Calm -- 29.81 in1009.5 mb - 0.00 in0.0 mm 0.01 in0.3 mm
11:10 PM 42.2°F5.7°C 40.6°F4.8°C 94% Calm Calm -- 29.80 in1009.1 mb - 0.00 in0.0 mm 0.01 in0.3 mm
11:20 PM 42.2°F5.7°C 40.6°F4.8°C 94% Calm Calm -- 29.80 in1009.1 mb - 0.01 in0.3 mm 0.02 in0.5 mm
11:30 PM 42.2°F5.7°C 40.6°F4.8°C 94% Calm Calm -- 29.80 in1009.1 mb - 0.00 in0.0 mm 0.02 in0.5 mm
11:40 PM 42.3°F5.7°C 40.7°F4.8°C 94% Calm Calm -- 29.78 in1008.5 mb - 0.00 in0.0 mm 0.02 in0.5 mm
11:50 PM 42.5°F5.8°C 41.2°F5.1°C 95% Calm Calm 2.3 mph3.7 kmh 29.77 in1008.1 mb - 0.00 in0.0 mm 0.02 in0.5 mm